Time;durP1;ratioP1;P1;durP2;ratioP2;P2;SDS_P1;SDS_P2;PMS_P1;PMS_P2;Temp;Humidity;BMP_temperature;BMP_pressure;BME280_temperature;BME280_humidity;BME280_pressure;Samples;Min_cycle;Max_cycle;Signal;HPM_P1;HPM_P2
2021/03/14 00:00:57;;;;;;;;;;;;;;;20.55;33.98;100219.81;3097565;28;115815;-61
2021/03/14 00:02:28;;;;;;;;;;;;;;;20.56;34.04;100216.69;3115773;27;115692;-61
2021/03/14 00:04:05;;;;;;;;;;;;;;;20.59;33.86;100232.03;3089359;28;113953;-61
2021/03/14 00:05:37;;;;;;;;;;;;;;;20.60;34.01;100230.91;3103311;27;114057;-61
2021/03/14 00:07:08;;;;;;;;;;;;;;;20.61;33.96;100227.78;3085697;28;113742;-61
2021/03/14 00:08:40;;;;;;;;;;;;;;;20.61;33.89;100233.41;3086711;28;113768;-62
2021/03/14 00:10:11;;;;;;;;;;;;;;;20.62;33.80;100229.44;3089112;28;113930;-61
2021/03/14 00:11:42;;;;;;;;;;;;;;;20.64;33.73;100234.72;3095824;28;114288;-61
2021/03/14 00:13:14;;;;;;;;;;;;;;;20.65;34.07;100236.38;3096038;28;114061;-61
2021/03/14 00:14:45;;;;;;;;;;;;;;;20.64;34.00;100238.34;3093233;28;114456;-61
2021/03/14 00:16:17;;;;;;;;;;;;;;;20.67;33.94;100239.69;3093175;28;113977;-61
2021/03/14 00:17:48;;;;;;;;;;;;;;;20.66;33.70;100241.66;3093599;28;113795;-61
2021/03/14 00:19:20;;;;;;;;;;;;;;;20.65;33.96;100248.44;3092319;28;114608;-61
2021/03/14 00:20:51;;;;;;;;;;;;;;;20.67;33.93;100242.50;3094870;28;113690;-61
2021/03/14 00:22:22;;;;;;;;;;;;;;;20.67;33.60;100242.50;3090779;28;114079;-61
2021/03/14 00:23:56;;;;;;;;;;;;;;;20.67;33.83;100243.28;3093700;28;113957;-62
2021/03/14 00:25:27;;;;;;;;;;;;;;;20.66;33.93;100255.69;3085475;28;115161;-64
2021/03/14 00:26:58;;;;;;;;;;;;;;;20.67;33.48;100248.91;3085220;28;114275;-62
2021/03/14 00:28:30;;;;;;;;;;;;;;;20.67;33.61;100257.31;3096290;28;114956;-61
2021/03/14 00:30:03;;;;;;;;;;;;;;;20.66;33.34;100252.91;3087763;28;115127;-61
2021/03/14 00:31:34;;;;;;;;;;;;;;;20.65;33.38;100261.63;3085880;28;114167;-62
2021/03/14 00:33:05;;;;;;;;;;;;;;;20.63;33.42;100267.56;3087079;28;114690;-61
2021/03/14 00:34:36;;;;;;;;;;;;;;;20.63;33.26;100273.16;3088942;28;114002;-62
2021/03/14 00:36:07;;;;;;;;;;;;;;;20.63;33.50;100283.56;3067544;28;114089;-61
2021/03/14 00:37:39;;;;;;;;;;;;;;;20.62;33.31;100284.75;3066752;28;115796;-61
2021/03/14 00:39:22;;;;;;;;;;;;;;;20.61;33.37;100289.53;3052854;28;115439;-62
2021/03/14 00:40:53;;;;;;;;;;;;;;;20.59;33.27;100286.22;3058016;28;115201;-62
2021/03/14 00:42:24;;;;;;;;;;;;;;;20.59;33.47;100285.38;3061325;28;114220;-61
2021/03/14 00:43:55;;;;;;;;;;;;;;;20.57;33.16;100287.69;3058519;28;115154;-62
2021/03/14 00:45:26;;;;;;;;;;;;;;;20.55;33.20;100282.41;3065349;28;115115;-61
2021/03/14 00:46:58;;;;;;;;;;;;;;;20.56;33.22;100291.66;3078132;28;114503;-61
2021/03/14 00:48:29;;;;;;;;;;;;;;;20.55;33.47;100290.81;3068563;28;115700;-61
2021/03/14 00:50:00;;;;;;;;;;;;;;;20.53;33.37;100293.13;3065456;28;115799;-61
2021/03/14 00:51:31;;;;;;;;;;;;;;;20.52;33.34;100287.84;3072047;28;115709;-62
2021/03/14 00:53:03;;;;;;;;;;;;;;;20.51;33.47;100292.63;3061205;28;115743;-61
2021/03/14 00:54:34;;;;;;;;;;;;;;;20.49;33.37;100292.09;3060299;28;115737;-61
2021/03/14 00:56:06;;;;;;;;;;;;;;;20.50;33.41;100299.38;3059735;28;115873;-61
2021/03/14 00:57:37;;;;;;;;;;;;;;;20.50;33.59;100304.16;3059176;28;117138;-61
2021/03/14 00:59:09;;;;;;;;;;;;;;;20.49;33.80;100310.94;3067645;28;115651;-61
2021/03/14 01:00:40;;;;;;;;;;;;;;;20.48;33.73;100320.50;3056660;28;116308;-61
2021/03/14 01:02:11;;;;;;;;;;;;;;;20.48;33.79;100314.91;3052123;28;115895;-61
2021/03/14 01:03:42;;;;;;;;;;;;;;;20.44;33.99;100313.91;3059156;28;115657;-62
2021/03/14 01:05:13;;;;;;;;;;;;;;;20.45;34.23;100316.34;3085979;28;115616;-61
2021/03/14 01:06:44;;;;;;;;;;;;;;;20.45;34.52;100321.97;3072290;28;115192;-62
2021/03/14 01:08:16;;;;;;;;;;;;;;;20.41;34.58;100332.19;3057453;28;114208;-61
2021/03/14 01:09:47;;;;;;;;;;;;;;;20.42;34.46;100331.03;3055674;28;114022;-61
2021/03/14 01:11:18;;;;;;;;;;;;;;;20.44;33.98;100342.78;3059096;28;113951;-61
2021/03/14 01:12:50;;;;;;;;;;;;;;;20.23;32.81;100345.25;3088739;28;113758;-61
2021/03/14 01:14:21;;;;;;;;;;;;;;;20.20;33.80;100345.09;3059702;28;113974;-62
2021/03/14 01:15:52;;;;;;;;;;;;;;;20.21;34.12;100346.75;3066616;28;114596;-61
2021/03/14 01:17:23;;;;;;;;;;;;;;;20.21;33.99;100339.16;3068218;28;114192;-61
2021/03/14 01:18:55;;;;;;;;;;;;;;;20.21;34.13;100332.72;3065217;28;113916;-61
2021/03/14 01:20:26;;;;;;;;;;;;;;;20.23;34.08;100341.63;3084130;28;114096;-61
2021/03/14 01:21:57;;;;;;;;;;;;;;;20.27;34.15;100346.28;3066433;28;114149;-62
2021/03/14 01:23:28;;;;;;;;;;;;;;;20.27;34.02;100345.44;3061677;28;113913;-62
2021/03/14 01:24:59;;;;;;;;;;;;;;;20.26;34.05;100349.41;3064295;28;113869;-59
2021/03/14 01:26:30;;;;;;;;;;;;;;;20.27;33.91;100342.63;3068639;28;113872;-61
2021/03/14 01:28:02;;;;;;;;;;;;;;;20.28;34.19;100355.53;3063693;28;114064;-62
2021/03/14 01:29:33;;;;;;;;;;;;;;;20.27;34.03;100354.69;3067793;28;113848;-62
2021/03/14 01:31:05;;;;;;;;;;;;;;;20.29;34.19;100354.38;3058590;28;115094;-61
2021/03/14 01:32:36;;;;;;;;;;;;;;;20.29;34.27;100360.81;3069091;28;115075;-62
2021/03/14 01:34:08;;;;;;;;;;;;;;;20.28;34.33;100361.97;3087141;28;115354;-63
2021/03/14 01:35:39;;;;;;;;;;;;;;;20.27;34.26;100359.47;3089871;28;115126;-63
2021/03/14 01:37:10;;;;;;;;;;;;;;;20.26;34.47;100360.63;3087840;28;115150;-63
2021/03/14 01:38:41;;;;;;;;;;;;;;;20.25;34.51;100356.19;3087538;28;115912;-63
2021/03/14 01:40:14;;;;;;;;;;;;;;;20.24;34.86;100360.94;3104141;28;114641;-63
2021/03/14 01:41:46;;;;;;;;;;;;;;;20.24;34.87;100357.31;3111720;27;115003;-63
2021/03/14 01:43:17;;;;;;;;;;;;;;;20.22;34.80;100371.66;3105356;27;114264;-63
2021/03/14 01:44:48;;;;;;;;;;;;;;;20.21;35.04;100370.03;3094162;28;114115;-62
2021/03/14 01:46:19;;;;;;;;;;;;;;;20.22;34.88;100382.88;3093927;28;115066;-61
2021/03/14 01:47:51;;;;;;;;;;;;;;;20.21;34.92;100374.81;3096029;28;115118;-61
2021/03/14 01:49:23;;;;;;;;;;;;;;;20.20;35.04;100381.56;3094380;28;115142;-62
2021/03/14 01:50:54;;;;;;;;;;;;;;;20.18;35.03;100373.44;3096993;28;115257;-63
2021/03/14 01:52:25;;;;;;;;;;;;;;;20.18;35.34;100379.06;3095066;28;115844;-62
2021/03/14 01:53:56;;;;;;;;;;;;;;;20.15;35.17;100379.72;3096876;28;115840;-62
2021/03/14 01:55:27;;;;;;;;;;;;;;;20.16;35.56;100388.94;3094201;28;116084;-62
2021/03/14 01:56:58;;;;;;;;;;;;;;;20.15;35.42;100392.91;3094132;28;114576;-62
2021/03/14 01:58:30;;;;;;;;;;;;;;;20.14;35.52;100397.69;3096454;28;115994;-63
2021/03/14 02:00:02;;;;;;;;;;;;;;;20.14;35.54;100396.84;3121710;27;115807;-62
2021/03/14 02:01:33;;;;;;;;;;;;;;;20.12;35.33;100390.75;3109937;27;116090;-62
2021/03/14 02:03:05;;;;;;;;;;;;;;;20.10;35.37;100399.47;3102834;28;115914;-62
2021/03/14 02:04:36;;;;;;;;;;;;;;;20.10;35.61;100401.44;3091595;28;115722;-61
2021/03/14 02:06:09;;;;;;;;;;;;;;;20.05;35.67;100404.38;3084354;28;114670;-61
2021/03/14 02:07:41;;;;;;;;;;;;;;;20.06;35.55;100406.03;3117776;27;115787;-61
2021/03/14 02:09:12;;;;;;;;;;;;;;;20.03;35.80;100410.31;3111949;27;115084;-61
2021/03/14 02:10:46;;;;;;;;;;;;;;;20.04;35.52;100411.13;3098753;28;115975;-61
2021/03/14 02:12:19;;;;;;;;;;;;;;;20.01;35.64;100423.81;3094645;28;115797;-64
2021/03/14 02:13:51;;;;;;;;;;;;;;;20.01;35.58;100426.63;3093564;28;114023;-64
2021/03/14 02:15:23;;;;;;;;;;;;;;;20.00;35.65;100430.56;3092053;28;113806;-64
2021/03/14 02:16:56;;;;;;;;;;;;;;;19.98;35.73;100442.09;3104513;28;114159;-64
2021/03/14 02:18:41;;;;;;;;;;;;;;;19.97;35.65;100440.44;3115559;27;113632;-64
2021/03/14 02:20:14;;;;;;;;;;;;;;;19.95;35.79;100448.34;3093346;28;113959;-63
2021/03/14 02:21:45;;;;;;;;;;;;;;;19.94;35.75;100445.88;3098805;28;113944;-64
2021/03/14 02:23:20;;;;;;;;;;;;;;;19.93;36.17;100447.00;3092616;28;113801;-64
2021/03/14 02:24:55;;;;;;;;;;;;;;;19.91;36.03;100441.69;3091753;28;113996;-64
2021/03/14 02:26:31;;;;;;;;;;;;;;;19.91;35.96;100449.28;3112445;27;114436;-61
2021/03/14 02:28:04;;;;;;;;;;;;;;;19.88;36.11;100453.56;3107164;27;113865;-63
2021/03/14 02:29:35;;;;;;;;;;;;;;;19.89;36.15;100460.84;3095710;28;113867;-64
2021/03/14 02:31:07;;;;;;;;;;;;;;;19.88;36.02;100452.72;3097464;28;113832;-64
2021/03/14 02:32:38;;;;;;;;;;;;;;;19.86;35.97;100466.22;3089322;28;114063;-63
2021/03/14 02:34:12;;;;;;;;;;;;;;;19.83;36.28;100459.28;3107662;28;113908;-64
2021/03/14 02:35:44;;;;;;;;;;;;;;;19.84;36.12;100460.13;3121784;27;115231;-64
2021/03/14 02:37:16;;;;;;;;;;;;;;;19.82;36.60;100465.19;3108871;27;113995;-63
2021/03/14 02:38:47;;;;;;;;;;;;;;;19.81;36.21;100475.56;3118670;27;116271;-64
2021/03/14 02:40:19;;;;;;;;;;;;;;;19.80;36.32;100473.09;3101716;27;115153;-64
2021/03/14 02:41:51;;;;;;;;;;;;;;;19.78;36.50;100472.56;3090030;28;115662;-63
2021/03/14 02:43:24;;;;;;;;;;;;;;;19.77;36.34;100482.97;3109688;27;114899;-62
2021/03/14 02:44:56;;;;;;;;;;;;;;;19.77;36.63;100487.72;3110974;27;115117;-63
2021/03/14 02:46:29;;;;;;;;;;;;;;;19.75;36.55;100484.44;3099229;28;115161;-63
2021/03/14 02:48:00;;;;;;;;;;;;;;;19.72;36.83;100497.09;3093969;28;114323;-63
2021/03/14 02:49:33;;;;;;;;;;;;;;;19.72;36.95;100502.69;3101315;28;115787;-63
2021/03/14 02:51:04;;;;;;;;;;;;;;;19.70;36.97;100506.97;3098722;28;115594;-63
2021/03/14 02:52:35;;;;;;;;;;;;;;;19.69;36.89;100514.53;3121758;27;114853;-63
2021/03/14 02:54:07;;;;;;;;;;;;;;;19.68;36.81;100515.69;3109298;27;115478;-64
2021/03/14 02:55:39;;;;;;;;;;;;;;;19.67;37.04;100508.41;3092680;28;115668;-63
2021/03/14 02:57:10;;;;;;;;;;;;;;;19.66;36.97;100509.56;3097656;28;114506;-63
2021/03/14 02:58:41;;;;;;;;;;;;;;;19.67;37.13;100511.19;3096800;28;115704;-64
2021/03/14 03:00:14;;;;;;;;;;;;;;;19.64;37.29;100513.81;3094793;28;114644;-63
2021/03/14 03:01:46;;;;;;;;;;;;;;;19.61;37.24;100506.88;3089622;28;115959;-64
2021/03/14 03:03:22;;;;;;;;;;;;;;;19.62;37.12;100516.13;3093469;28;114543;-63
2021/03/14 03:04:53;;;;;;;;;;;;;;;19.62;37.29;100524.53;3095691;28;115653;-64
2021/03/14 03:06:26;;;;;;;;;;;;;;;19.59;37.56;100511.13;3086507;28;116075;-64
2021/03/14 03:07:58;;;;;;;;;;;;;;;19.58;37.35;100526.28;3097450;28;116646;-64
2021/03/14 03:09:30;;;;;;;;;;;;;;;19.57;37.53;100510.63;3085703;28;115622;-64
2021/03/14 03:11:04;;;;;;;;;;;;;;;19.58;37.52;100526.28;3106975;27;114371;-63
2021/03/14 03:12:35;;;;;;;;;;;;;;;19.54;37.94;100534.47;3103425;27;114381;-62
2021/03/14 03:14:10;;;;;;;;;;;;;;;19.54;37.71;100543.72;3088628;28;115658;-63
2021/03/14 03:15:42;;;;;;;;;;;;;;;19.54;37.78;100540.91;3092751;28;114593;-63
2021/03/14 03:17:13;;;;;;;;;;;;;;;19.53;37.71;100539.25;3106500;27;114432;-63
2021/03/14 03:18:45;;;;;;;;;;;;;;;19.52;37.88;100540.41;3087473;28;115432;-62
2021/03/14 03:20:17;;;;;;;;;;;;;;;19.51;37.99;100537.91;3106673;27;113757;-63
2021/03/14 03:21:48;;;;;;;;;;;;;;;19.51;37.93;100546.31;3100273;28;114967;-63
2021/03/14 03:23:19;;;;;;;;;;;;;;;19.49;38.02;100545.78;3089539;28;114026;-63
2021/03/14 03:24:52;;;;;;;;;;;;;;;19.47;38.07;100554.50;3109062;27;113918;-63
2021/03/14 03:26:24;;;;;;;;;;;;;;;19.47;37.82;100562.09;3093798;28;113739;-63
2021/03/14 03:27:55;;;;;;;;;;;;;;;19.45;38.14;100555.94;3085058;28;113933;-63
2021/03/14 03:29:26;;;;;;;;;;;;;;;19.45;38.04;100555.94;3087026;28;114099;-63
2021/03/14 03:30:57;;;;;;;;;;;;;;;19.45;38.23;100562.38;3087207;28;114082;-64
2021/03/14 03:32:28;;;;;;;;;;;;;;;19.43;38.14;100561.88;3085901;28;113942;-64
2021/03/14 03:34:00;;;;;;;;;;;;;;;19.42;38.15;100568.59;3086733;28;113639;-63
2021/03/14 03:35:32;;;;;;;;;;;;;;;19.42;38.28;100574.19;3084458;28;113680;-63
2021/03/14 03:37:03;;;;;;;;;;;;;;;19.41;38.25;100569.72;3107204;27;113848;-64
2021/03/14 03:38:34;;;;;;;;;;;;;;;19.41;38.41;100578.13;3106675;27;114072;-63
2021/03/14 03:40:07;;;;;;;;;;;;;;;19.42;38.38;100577.00;3103124;28;113669;-64
2021/03/14 03:41:44;;;;;;;;;;;;;;;19.43;38.34;100577.81;3095132;28;115447;-64
2021/03/14 03:43:19;;;;;;;;;;;;;;;19.39;38.49;100585.19;3087419;28;115065;-63
2021/03/14 03:44:50;;;;;;;;;;;;;;;19.40;38.69;100592.44;3105765;27;114052;-63
2021/03/14 03:46:22;;;;;;;;;;;;;;;19.40;38.69;100604.47;3100689;28;116100;-63
2021/03/14 03:47:56;;;;;;;;;;;;;;;19.39;38.64;100607.59;3086477;28;115360;-63
2021/03/14 03:49:46;;;;;;;;;;;;;;;19.37;38.62;100604.28;3091687;28;119035;-64
2021/03/14 03:51:19;;;;;;;;;;;;;;;19.37;38.71;100607.06;3105283;28;114186;-64
2021/03/14 03:52:52;;;;;;;;;;;;;;;19.37;38.91;100605.09;3085297;28;113923;-63
2021/03/14 03:54:23;;;;;;;;;;;;;;;19.36;38.93;100616.59;3101834;27;115070;-65
2021/03/14 03:55:55;;;;;;;;;;;;;;;19.34;38.86;100608.53;3088266;28;115090;-63
2021/03/14 03:57:26;;;;;;;;;;;;;;;19.35;39.17;100612.16;3081916;28;114136;-63
2021/03/14 03:58:59;;;;;;;;;;;;;;;19.33;38.89;100611.63;3090277;28;115294;-63
2021/03/14 04:00:31;;;;;;;;;;;;;;;19.33;39.07;100612.47;3085069;28;113998;-64
2021/03/14 04:02:03;;;;;;;;;;;;;;;19.33;38.85;100614.44;3089344;28;115333;-63
2021/03/14 04:03:36;;;;;;;;;;;;;;;19.31;39.13;100622.31;3106491;27;116657;-63
2021/03/14 04:05:09;;;;;;;;;;;;;;;19.30;39.14;100621.50;3088523;28;115804;-64
2021/03/14 04:06:41;;;;;;;;;;;;;;;19.32;38.95;100624.81;3088833;28;115707;-64
2021/03/14 04:08:13;;;;;;;;;;;;;;;19.32;39.25;100633.22;3093774;28;115760;-64
2021/03/14 04:09:45;;;;;;;;;;;;;;;19.28;39.17;100626.56;3085358;28;115949;-64
2021/03/14 04:11:18;;;;;;;;;;;;;;;19.27;39.14;100632.47;3086502;28;115754;-63
2021/03/14 04:12:50;;;;;;;;;;;;;;;19.26;39.29;100642.84;3102918;28;115758;-63
2021/03/14 04:14:22;;;;;;;;;;;;;;;19.27;39.24;100644.50;3093594;28;115626;-63
2021/03/14 04:15:53;;;;;;;;;;;;;;;19.27;39.52;100644.50;3097131;28;114343;-63
2021/03/14 04:17:25;;;;;;;;;;;;;;;19.25;39.55;100659.97;3090028;28;115534;-63
2021/03/14 04:18:58;;;;;;;;;;;;;;;19.25;39.39;100652.41;3106967;27;115254;-63
2021/03/14 04:20:31;;;;;;;;;;;;;;;19.26;39.32;100654.03;3083804;27;115645;-63
2021/03/14 04:22:03;;;;;;;;;;;;;;;19.23;39.47;100653.81;3100922;27;115085;-63
2021/03/14 04:23:36;;;;;;;;;;;;;;;19.22;39.52;100666.16;3092438;27;115707;-63
2021/03/14 04:25:10;;;;;;;;;;;;;;;19.21;39.60;100665.34;3115353;27;113794;-63
2021/03/14 04:26:42;;;;;;;;;;;;;;;19.21;39.55;100668.16;3092302;28;113945;-63
2021/03/14 04:28:13;;;;;;;;;;;;;;;19.19;39.52;100673.22;3113061;27;113990;-63
2021/03/14 04:29:45;;;;;;;;;;;;;;;19.19;39.52;100687.22;3103599;27;114096;-63
2021/03/14 04:31:16;;;;;;;;;;;;;;;19.20;39.66;100683.28;3113361;27;113755;-64
2021/03/14 04:32:47;;;;;;;;;;;;;;;19.19;39.89;100683.59;3097058;27;114082;-63
2021/03/14 04:34:19;;;;;;;;;;;;;;;19.18;39.80;100690.31;3084390;28;113894;-63
2021/03/14 04:35:51;;;;;;;;;;;;;;;19.21;39.66;100689.72;3097273;28;113843;-63
2021/03/14 04:37:22;;;;;;;;;;;;;;;19.18;39.60;100688.34;3091352;28;114037;-63
2021/03/14 04:38:54;;;;;;;;;;;;;;;19.17;39.67;100702.69;3100541;28;113917;-63
2021/03/14 04:40:26;;;;;;;;;;;;;;;19.17;39.55;100697.09;3079670;28;113983;-63
2021/03/14 04:41:57;;;;;;;;;;;;;;;19.17;39.45;100699.88;3109458;27;113763;-64
2021/03/14 04:43:28;;;;;;;;;;;;;;;19.17;39.49;100706.28;3106156;27;113820;-63
2021/03/14 04:45:00;;;;;;;;;;;;;;;19.14;39.62;100714.47;3092290;28;114042;-64
2021/03/14 04:46:31;;;;;;;;;;;;;;;19.13;39.46;100713.63;3101172;28;113750;-63
2021/03/14 04:48:03;;;;;;;;;;;;;;;19.13;39.42;100715.59;3109001;27;115181;-63
2021/03/14 04:49:34;;;;;;;;;;;;;;;19.12;39.49;100726.00;3076961;28;114990;-64
2021/03/14 04:51:05;;;;;;;;;;;;;;;19.12;39.39;100727.97;3081966;28;115070;-63
2021/03/14 04:52:37;;;;;;;;;;;;;;;19.11;39.67;100732.72;3086867;28;114133;-63
2021/03/14 04:54:10;;;;;;;;;;;;;;;19.09;39.57;100735.81;3085906;28;114455;-64
2021/03/14 04:55:43;;;;;;;;;;;;;;;19.09;39.65;100749.00;3096714;28;114278;-63
2021/03/14 04:57:15;;;;;;;;;;;;;;;19.10;39.36;100745.06;3110087;27;115240;-63
2021/03/14 04:58:48;;;;;;;;;;;;;;;19.08;39.35;100750.94;3101478;28;115069;-63
2021/03/14 05:00:20;;;;;;;;;;;;;;;19.07;39.40;100754.06;3087352;28;114018;-63
2021/03/14 05:01:52;;;;;;;;;;;;;;;19.07;39.53;100751.28;3086502;28;115065;-63
2021/03/14 05:03:23;;;;;;;;;;;;;;;19.05;39.42;100757.16;3084560;28;115820;-63
2021/03/14 05:04:55;;;;;;;;;;;;;;;19.05;39.51;100765.56;3085206;28;115105;-63
2021/03/14 05:06:27;;;;;;;;;;;;;;;19.02;39.62;100768.16;3086198;28;117444;-63
2021/03/14 05:07:59;;;;;;;;;;;;;;;19.01;39.59;100772.91;3089358;28;113897;-63
2021/03/14 05:09:30;;;;;;;;;;;;;;;19.02;39.62;100771.78;3082034;28;115855;-63
2021/03/14 05:11:01;;;;;;;;;;;;;;;19.02;39.59;100776.56;3097174;28;114627;-63
2021/03/14 05:12:32;;;;;;;;;;;;;;;19.01;39.64;100786.91;3084222;28;115716;-63
2021/03/14 05:14:04;;;;;;;;;;;;;;;19.00;39.91;100790.84;3080634;28;115724;-64
2021/03/14 05:15:36;;;;;;;;;;;;;;;18.97;39.78;100797.06;3114403;27;116128;-64
2021/03/14 05:17:07;;;;;;;;;;;;;;;18.98;39.93;100798.72;3108585;27;114613;-63
2021/03/14 05:18:39;;;;;;;;;;;;;;;18.97;39.81;100799.03;3089029;28;115619;-63
2021/03/14 05:20:13;;;;;;;;;;;;;;;19.00;40.02;100807.63;3109915;27;116602;-64
2021/03/14 05:21:44;;;;;;;;;;;;;;;18.99;39.90;100803.16;3103173;27;115730;-63
2021/03/14 05:23:15;;;;;;;;;;;;;;;18.96;40.07;100806.59;3095250;28;115660;-63
2021/03/14 05:24:47;;;;;;;;;;;;;;;18.96;39.97;100817.78;3098493;28;115588;-63
2021/03/14 05:26:19;;;;;;;;;;;;;;;18.96;40.17;100817.78;3085291;28;115656;-63
2021/03/14 05:27:51;;;;;;;;;;;;;;;18.95;40.16;100829.28;3092680;28;116374;-62
2021/03/14 05:29:23;;;;;;;;;;;;;;;18.94;40.12;100828.44;3091387;28;114573;-63
2021/03/14 05:30:54;;;;;;;;;;;;;;;18.93;40.16;100834.34;3106887;27;114008;-63
2021/03/14 05:32:26;;;;;;;;;;;;;;;18.94;40.22;100831.22;3084866;28;113782;-63
2021/03/14 05:33:57;;;;;;;;;;;;;;;18.93;40.17;100835.19;3086183;28;113757;-63
2021/03/14 05:35:29;;;;;;;;;;;;;;;18.91;40.25;100836.59;3079747;28;116342;-63
2021/03/14 05:37:00;;;;;;;;;;;;;;;18.90;40.49;100843.34;3075864;28;113616;-63
2021/03/14 05:38:31;;;;;;;;;;;;;;;18.90;40.55;100846.97;3063218;28;113835;-63
2021/03/14 05:40:03;;;;;;;;;;;;;;;18.90;40.57;100846.13;3086197;28;113875;-63
2021/03/14 05:41:35;;;;;;;;;;;;;;;18.89;40.53;100855.69;3072381;28;113918;-63
2021/03/14 05:43:06;;;;;;;;;;;;;;;18.87;40.57;100855.97;3076716;28;113799;-63
2021/03/14 05:44:38;;;;;;;;;;;;;;;18.88;40.45;100856.81;3091398;28;113977;-63
2021/03/14 05:46:10;;;;;;;;;;;;;;;18.87;40.45;100853.19;3092963;28;113714;-63
2021/03/14 05:47:41;;;;;;;;;;;;;;;18.87;40.59;100863.53;3087500;28;114000;-63
2021/03/14 05:49:12;;;;;;;;;;;;;;;18.86;40.68;100868.31;3077771;28;113614;-63
2021/03/14 05:50:43;;;;;;;;;;;;;;;18.86;40.67;100859.91;3102793;28;114109;-63
2021/03/14 05:52:16;;;;;;;;;;;;;;;18.85;40.64;100865.81;3083108;28;115435;-63
2021/03/14 05:53:49;;;;;;;;;;;;;;;18.85;40.58;100858.22;3097850;28;113989;-63
2021/03/14 05:55:22;;;;;;;;;;;;;;;18.83;40.66;100859.66;3075173;28;115042;-62
2021/03/14 05:56:53;;;;;;;;;;;;;;;18.81;40.71;100859.97;3083209;28;115082;-63
2021/03/14 05:58:24;;;;;;;;;;;;;;;18.82;40.63;100863.59;3077363;28;114931;-63
2021/03/14 05:59:55;;;;;;;;;;;;;;;18.80;40.66;100863.91;3074680;28;115063;-63
2021/03/14 06:01:29;;;;;;;;;;;;;;;18.81;40.60;100871.16;3097849;28;115141;-63
2021/03/14 06:03:01;;;;;;;;;;;;;;;18.81;40.49;100876.75;3080416;28;115736;-63
2021/03/14 06:04:33;;;;;;;;;;;;;;;18.80;40.63;100875.13;3066039;28;115032;-63
2021/03/14 06:06:06;;;;;;;;;;;;;;;18.77;40.53;100880.44;3074484;28;114223;-64
2021/03/14 06:07:38;;;;;;;;;;;;;;;18.78;40.57;100882.97;3097078;28;116306;-63
2021/03/14 06:09:12;;;;;;;;;;;;;;;18.77;40.40;100886.88;3087027;28;115130;-63
2021/03/14 06:10:44;;;;;;;;;;;;;;;18.75;40.46;100889.16;3085318;28;114460;-63
2021/03/14 06:12:15;;;;;;;;;;;;;;;18.76;40.56;100895.59;3082039;28;114141;-63
2021/03/14 06:13:47;;;;;;;;;;;;;;;18.76;40.60;100901.19;3084130;28;115817;-63
2021/03/14 06:15:19;;;;;;;;;;;;;;;18.74;40.93;100897.84;3078110;28;115848;-63
2021/03/14 06:16:50;;;;;;;;;;;;;;;18.72;40.93;100902.91;3074834;28;116396;-62
2021/03/14 06:18:26;;;;;;;;;;;;;;;18.72;40.77;100903.72;3098063;28;117502;-63
2021/03/14 06:19:57;;;;;;;;;;;;;;;18.71;40.80;100904.06;3068337;28;114808;-62
2021/03/14 06:21:44;;;;;;;;;;;;;;;18.71;40.67;100909.66;3075887;28;116174;-63
2021/03/14 06:23:17;;;;;;;;;;;;;;;18.70;40.80;100908.81;3100445;28;115722;-63
2021/03/14 06:24:52;;;;;;;;;;;;;;;18.70;40.75;100921.97;3077422;28;116109;-64
2021/03/14 06:26:34;;;;;;;;;;;;;;;18.66;40.80;100921.72;3095703;28;118467;-64
2021/03/14 06:28:05;;;;;;;;;;;;;;;18.70;40.44;100920.00;3079882;28;115761;-63
2021/03/14 06:29:39;;;;;;;;;;;;;;;18.68;40.63;100922.25;3075973;28;117427;-63
2021/03/14 06:31:18;;;;;;;;;;;;;;;18.69;40.57;100934.28;3097013;28;114762;-63
2021/03/14 06:33:00;;;;;;;;;;;;;;;18.67;40.74;100931.78;3079382;28;114702;-62
2021/03/14 06:34:34;;;;;;;;;;;;;;;18.67;40.64;100936.56;3073764;28;114669;-62
2021/03/14 06:36:10;;;;;;;;;;;;;;;18.65;40.58;100939.66;3086298;28;115768;-63
2021/03/14 06:37:43;;;;;;;;;;;;;;;18.65;40.57;100940.47;3102247;27;113726;-63
2021/03/14 06:39:20;;;;;;;;;;;;;;;18.64;40.69;100944.41;3083390;28;113904;-62
2021/03/14 06:40:54;;;;;;;;;;;;;;;18.71;40.43;100944.06;3109515;27;114019;-63
2021/03/14 06:42:31;;;;;;;;;;;;;;;18.75;40.85;100947.94;3101030;28;113634;-63
2021/03/14 06:44:02;;;;;;;;;;;;;;;18.77;40.91;100948.47;3083928;28;114207;-63
2021/03/14 06:45:37;;;;;;;;;;;;;;;18.82;41.08;100955.97;3088906;28;113801;-63
2021/03/14 06:47:10;;;;;;;;;;;;;;;18.84;40.84;100965.75;3112064;27;113861;-63
2021/03/14 06:48:41;;;;;;;;;;;;;;;18.86;40.92;100971.88;3092301;27;114293;-63
2021/03/14 06:50:17;;;;;;;;;;;;;;;18.90;41.15;100972.09;3085534;28;113957;-63
2021/03/14 06:52:07;;;;;;;;;;;;;;;18.93;41.12;100977.97;3109868;27;114119;-64
2021/03/14 06:53:38;;;;;;;;;;;;;;;18.96;41.25;100982.97;3092007;28;113891;-63
2021/03/14 06:55:24;;;;;;;;;;;;;;;19.01;41.21;100990.47;3108950;27;114017;-63
2021/03/14 06:56:57;;;;;;;;;;;;;;;19.06;41.44;100993.22;3086079;28;113730;-63
2021/03/14 06:58:28;;;;;;;;;;;;;;;19.10;41.39;100991.50;3084706;28;113744;-63
2021/03/14 07:00:00;;;;;;;;;;;;;;;19.15;41.42;100985.00;3111975;27;114215;-64
2021/03/14 07:01:32;;;;;;;;;;;;;;;19.19;41.38;100988.88;3098824;28;115785;-63
2021/03/14 07:03:22;;;;;;;;;;;;;;;19.24;41.32;100986.84;3086907;28;115184;-63
2021/03/14 07:04:54;;;;;;;;;;;;;;;19.31;41.25;100989.25;3098681;28;115042;-62
2021/03/14 07:06:27;;;;;;;;;;;;;;;19.36;41.08;101000.41;3091229;28;114044;-63
2021/03/14 07:07:58;;;;;;;;;;;;;;;19.43;41.50;100998.97;3077032;28;115910;-63
2021/03/14 07:09:30;;;;;;;;;;;;;;;19.48;41.23;101004.50;3086327;28;115386;-63
2021/03/14 07:11:01;;;;;;;;;;;;;;;19.55;40.91;101009.72;3086335;28;115363;-63
2021/03/14 07:12:35;;;;;;;;;;;;;;;19.60;40.71;101015.28;3111710;27;115140;-63
2021/03/14 07:14:11;;;;;;;;;;;;;;;19.65;40.73;101018.00;3094555;27;115446;-63
2021/03/14 07:15:48;;;;;;;;;;;;;;;19.71;40.46;101025.22;3104313;27;114022;-64
2021/03/14 07:17:29;;;;;;;;;;;;;;;19.76;40.18;101019.53;3086636;28;115455;-64
2021/03/14 07:19:01;;;;;;;;;;;;;;;19.83;40.12;101036.00;3097729;28;114178;-63
2021/03/14 07:20:32;;;;;;;;;;;;;;;19.87;40.13;101032.28;3094345;28;115089;-64
2021/03/14 07:22:08;;;;;;;;;;;;;;;19.92;41.28;101037.81;3087507;28;115756;-63
2021/03/14 07:23:40;;;;;;;;;;;;;;;19.98;40.25;101038.59;3084866;28;114742;-63
2021/03/14 07:25:20;;;;;;;;;;;;;;;20.03;40.38;101032.06;3084584;28;115910;-63
2021/03/14 07:26:52;;;;;;;;;;;;;;;20.08;40.21;101044.03;3087034;28;115783;-64
2021/03/14 07:28:24;;;;;;;;;;;;;;;20.13;39.96;101040.31;3086673;28;115654;-64
2021/03/14 07:29:55;;;;;;;;;;;;;;;20.17;39.84;101047.00;3086353;28;115711;-64
2021/03/14 07:31:27;;;;;;;;;;;;;;;20.21;39.87;101056.47;3082745;28;116995;-63
2021/03/14 07:32:59;;;;;;;;;;;;;;;20.25;39.58;101060.34;3091543;28;115797;-64
2021/03/14 07:34:31;;;;;;;;;;;;;;;20.30;39.57;101065.91;3106423;28;116030;-64
2021/03/14 07:36:02;;;;;;;;;;;;;;;20.33;39.47;101066.13;3116617;27;115754;-64
2021/03/14 07:37:43;;;;;;;;;;;;;;;20.37;39.59;101066.34;3090842;28;115713;-63
2021/03/14 07:39:21;;;;;;;;;;;;;;;20.42;39.45;101078.34;3094032;28;114786;-64
2021/03/14 07:40:52;;;;;;;;;;;;;;;20.47;39.35;101082.19;3101519;28;114905;-64
2021/03/14 07:42:24;;;;;;;;;;;;;;;20.49;39.15;101080.75;3103386;28;114685;-64
2021/03/14 07:43:55;;;;;;;;;;;;;;;20.54;39.11;101075.06;3117418;27;113858;-64
2021/03/14 07:45:27;;;;;;;;;;;;;;;20.58;39.11;101072.50;3084077;28;114018;-64
2021/03/14 07:46:59;;;;;;;;;;;;;;;20.62;38.91;101084.78;3105360;27;113882;-64
2021/03/14 07:48:30;;;;;;;;;;;;;;;20.65;38.83;101078.53;3099086;27;113902;-64
2021/03/14 07:50:03;;;;;;;;;;;;;;;20.68;38.86;101084.38;3092168;28;114246;-64